createdAt,value
2019-06-27T00:00:00.052Z,27.28
2019-06-27T00:00:37.302Z,27.33
2019-06-27T00:01:13.950Z,27.32
2019-06-27T00:01:50.305Z,27.30
2019-06-27T00:02:27.813Z,27.33
2019-06-27T00:03:05.340Z,27.27
2019-06-27T00:03:41.518Z,27.22
2019-06-27T00:04:18.140Z,27.20
2019-06-27T00:04:54.746Z,27.19
2019-06-27T00:05:30.805Z,27.14
2019-06-27T00:06:07.771Z,27.12
2019-06-27T00:06:44.551Z,27.13
2019-06-27T00:07:21.031Z,27.11
2019-06-27T00:07:58.073Z,27.09
2019-06-27T00:08:35.195Z,27.06
2019-06-27T00:09:12.503Z,27.10
2019-06-27T00:09:49.510Z,27.04
2019-06-27T00:10:26.225Z,27.04
2019-06-27T00:11:02.294Z,27.04
2019-06-27T00:11:38.969Z,27.01
2019-06-27T00:12:15.586Z,27.05
2019-06-27T00:12:51.729Z,27.05
2019-06-27T00:13:28.357Z,27.20
2019-06-27T00:14:05.125Z,27.12
2019-06-27T00:14:41.220Z,27.12
2019-06-27T00:15:17.938Z,27.14
2019-06-27T00:15:54.597Z,27.09
2019-06-27T00:16:30.641Z,27.10
2019-06-27T00:17:07.731Z,27.03
2019-06-27T00:17:44.394Z,26.98
2019-06-27T00:18:20.464Z,27.00
2019-06-27T00:18:57.079Z,26.99
2019-06-27T00:19:33.725Z,26.92
2019-06-27T00:20:10.111Z,26.89
2019-06-27T00:20:46.777Z,26.87
2019-06-27T00:21:24.225Z,26.91
2019-06-27T00:22:00.750Z,26.88
2019-06-27T00:22:41.138Z,26.86
2019-06-27T00:23:17.095Z,26.88
2019-06-27T00:23:53.236Z,26.85
2019-06-27T00:24:29.866Z,26.80
2019-06-27T00:25:06.800Z,26.77
2019-06-27T00:25:43.424Z,26.74
2019-06-27T00:26:20.419Z,26.74
2019-06-27T00:26:57.791Z,26.73
2019-06-27T00:27:34.363Z,26.75
2019-06-27T00:28:11.053Z,26.75
2019-06-27T00:28:47.660Z,26.76
2019-06-27T00:29:23.687Z,26.77
2019-06-27T00:30:00.562Z,26.70
2019-06-27T00:30:37.487Z,26.76
2019-06-27T00:31:13.536Z,26.78
2019-06-27T00:31:50.165Z,26.77
2019-06-27T00:32:27.132Z,26.70
2019-06-27T00:33:03.190Z,26.77
2019-06-27T00:33:39.831Z,26.68
2019-06-27T00:34:16.587Z,26.63
2019-06-27T00:34:52.614Z,26.64
2019-06-27T00:35:29.220Z,26.67
2019-06-27T00:36:06.356Z,26.67
2019-06-27T00:36:42.705Z,26.68
2019-06-27T00:37:19.306Z,26.66
2019-06-27T00:37:56.270Z,26.61
2019-06-27T00:38:33.668Z,26.56
2019-06-27T00:39:11.601Z,26.53
2019-06-27T00:39:48.513Z,26.52
2019-06-27T00:40:24.544Z,26.47
2019-06-27T00:41:01.189Z,26.44
2019-06-27T00:41:37.811Z,26.43
2019-06-27T00:42:14.180Z,26.43
2019-06-27T00:42:50.792Z,26.53
2019-06-27T00:43:27.393Z,26.50
2019-06-27T00:44:03.515Z,26.50
2019-06-27T00:44:40.358Z,26.42
2019-06-27T00:45:17.075Z,26.48
2019-06-27T00:45:53.103Z,26.51
2019-06-27T00:46:29.758Z,26.48
2019-06-27T00:47:06.499Z,26.54
2019-06-27T00:47:42.572Z,26.51
2019-06-27T00:48:19.200Z,26.42
2019-06-27T00:48:55.820Z,26.33
2019-06-27T00:49:32.148Z,26.32
2019-06-27T00:50:09.290Z,26.40
2019-06-27T00:50:46.369Z,26.35
2019-06-27T00:51:22.440Z,26.27
2019-06-27T00:51:59.325Z,26.27
2019-06-27T00:52:36.124Z,26.27
2019-06-27T00:53:12.216Z,26.26
2019-06-27T00:53:48.819Z,26.30
2019-06-27T00:54:25.426Z,26.35
2019-06-27T00:55:01.444Z,26.31
2019-06-27T00:55:38.133Z,26.34
2019-06-27T00:56:14.898Z,26.30
2019-06-27T00:56:51.172Z,26.26
2019-06-27T00:57:28.036Z,26.25
2019-06-27T00:58:05.110Z,26.16
2019-06-27T00:58:41.150Z,26.21
2019-06-27T00:59:17.753Z,26.10
2019-06-27T00:59:54.472Z,26.09
2019-06-27T01:00:30.842Z,26.04
2019-06-27T01:01:07.631Z,26.04
2019-06-27T01:01:44.259Z,26.02
2019-06-27T01:02:20.265Z,26.00
2019-06-27T01:02:57.128Z,26.00
2019-06-27T01:03:33.815Z,25.98
2019-06-27T01:04:12.822Z,26.05
2019-06-27T01:04:49.742Z,26.02
2019-06-27T01:05:26.805Z,26.08
2019-06-27T01:06:03.297Z,26.07
2019-06-27T01:06:40.465Z,26.01
2019-06-27T01:07:17.122Z,26.00
2019-06-27T01:07:53.159Z,25.98
2019-06-27T01:08:29.779Z,26.01
2019-06-27T01:09:07.794Z,26.00
2019-06-27T01:09:43.910Z,26.03
2019-06-27T01:10:20.917Z,25.98
2019-06-27T01:10:57.560Z,26.04
2019-06-27T01:11:34.193Z,26.00
2019-06-27T01:12:10.914Z,25.97
2019-06-27T01:12:47.540Z,25.95
2019-06-27T01:13:23.584Z,25.93
2019-06-27T01:14:00.232Z,25.93
2019-06-27T01:14:36.903Z,25.92
2019-06-27T01:15:12.953Z,25.97
2019-06-27T01:15:49.564Z,25.96
2019-06-27T01:16:26.203Z,25.90
2019-06-27T01:17:02.597Z,25.87
2019-06-27T01:17:39.287Z,25.82
2019-06-27T01:18:15.912Z,25.86
2019-06-27T01:18:51.986Z,25.82
2019-06-27T01:19:28.599Z,25.78
2019-06-27T01:20:06.179Z,25.77
2019-06-27T01:20:42.248Z,25.76
2019-06-27T01:21:19.268Z,25.71
2019-06-27T01:21:55.849Z,25.76
2019-06-27T01:22:32.692Z,25.77
2019-06-27T01:23:09.344Z,25.75
2019-06-27T01:23:45.982Z,25.75
2019-06-27T01:24:22.356Z,25.70
2019-06-27T01:24:59.300Z,25.69
2019-06-27T01:25:36.011Z,25.66
2019-06-27T01:26:12.129Z,25.76
2019-06-27T01:26:49.085Z,25.74
2019-06-27T01:27:30.062Z,25.76
2019-06-27T01:28:03.604Z,25.72
2019-06-27T01:28:40.564Z,25.71
2019-06-27T01:29:17.610Z,25.65
2019-06-27T01:29:53.635Z,25.71
2019-06-27T01:30:30.241Z,25.68
2019-06-27T01:31:07.284Z,25.70
2019-06-27T01:31:43.508Z,25.64
2019-06-27T01:32:20.109Z,25.61
2019-06-27T01:32:56.811Z,25.63
2019-06-27T01:33:33.228Z,25.64
2019-06-27T01:34:09.903Z,25.62
2019-06-27T01:34:46.520Z,25.58
2019-06-27T01:35:23.084Z,25.58
2019-06-27T01:35:59.696Z,25.55
2019-06-27T01:36:36.375Z,25.57
2019-06-27T01:37:12.419Z,25.54
2019-06-27T01:37:49.305Z,25.55
2019-06-27T01:38:25.920Z,25.55
2019-06-27T01:39:01.938Z,25.54
2019-06-27T01:39:38.688Z,25.61
2019-06-27T01:40:18.277Z,25.58
2019-06-27T01:40:54.295Z,25.51
2019-06-27T01:41:30.930Z,25.50
2019-06-27T01:42:08.012Z,25.52
2019-06-27T01:42:44.019Z,25.53
2019-06-27T01:43:21.005Z,25.50
2019-06-27T01:43:57.645Z,25.48
2019-06-27T01:44:42.122Z,25.46
2019-06-27T01:45:26.402Z,25.37
2019-06-27T01:46:03.034Z,25.34
2019-06-27T01:46:39.174Z,25.37
2019-06-27T01:47:15.795Z,25.34
2019-06-27T01:47:52.398Z,25.42
2019-06-27T01:48:28.424Z,25.39
2019-06-27T01:49:05.543Z,25.36
2019-06-27T01:49:42.171Z,25.39
2019-06-27T01:50:18.186Z,25.33
2019-06-27T01:50:55.111Z,25.39
2019-06-27T01:51:31.935Z,25.39
2019-06-27T01:52:07.971Z,25.34
2019-06-27T01:52:44.884Z,25.33
2019-06-27T01:53:21.949Z,25.34
2019-06-27T01:53:57.996Z,25.38
2019-06-27T01:54:34.932Z,25.39
2019-06-27T01:55:11.979Z,25.34
2019-06-27T01:55:47.982Z,25.32
2019-06-27T01:56:24.628Z,25.23
2019-06-27T01:57:01.485Z,25.23
2019-06-27T01:57:46.505Z,25.26
2019-06-27T01:58:15.801Z,25.20
2019-06-27T01:58:52.437Z,25.21
2019-06-27T01:59:28.831Z,25.21
2019-06-27T02:00:06.833Z,25.23
2019-06-27T02:00:43.868Z,25.19
2019-06-27T02:01:19.862Z,25.18
2019-06-27T02:01:56.685Z,25.16
2019-06-27T02:02:33.702Z,25.11
2019-06-27T02:03:09.787Z,25.17
2019-06-27T02:03:47.120Z,25.13
2019-06-27T02:04:23.711Z,25.11
2019-06-27T02:05:00.269Z,25.11
2019-06-27T02:05:36.950Z,25.08
2019-06-27T02:06:13.685Z,25.06
2019-06-27T02:06:50.147Z,25.06
2019-06-27T02:07:26.755Z,24.98
2019-06-27T02:08:03.718Z,24.88
2019-06-27T02:08:40.471Z,24.89
2019-06-27T02:09:17.179Z,24.89
2019-06-27T02:09:54.154Z,24.93
2019-06-27T02:10:30.175Z,24.90
2019-06-27T02:11:06.900Z,24.88
2019-06-27T02:11:43.524Z,24.89
2019-06-27T02:12:19.678Z,24.83
2019-06-27T02:12:56.311Z,24.82
2019-06-27T02:13:35.341Z,24.83
2019-06-27T02:14:11.862Z,24.81
2019-06-27T02:14:48.859Z,24.85
2019-06-27T02:15:26.196Z,24.86
2019-06-27T02:16:02.296Z,24.88
2019-06-27T02:16:39.014Z,24.93
2019-06-27T02:17:15.687Z,24.90
2019-06-27T02:17:52.060Z,24.90
2019-06-27T02:18:28.678Z,24.97
2019-06-27T02:19:05.510Z,24.88
2019-06-27T02:19:41.608Z,24.87
2019-06-27T02:20:19.389Z,24.87
2019-06-27T02:20:55.999Z,24.89
2019-06-27T02:21:32.072Z,24.87
2019-06-27T02:22:08.887Z,24.82
2019-06-27T02:22:45.582Z,24.79
2019-06-27T02:23:21.618Z,24.86
2019-06-27T02:23:58.222Z,24.83
2019-06-27T02:24:35.195Z,24.84
2019-06-27T02:25:11.773Z,24.72
2019-06-27T02:25:48.356Z,24.66
2019-06-27T02:26:25.826Z,24.64
2019-06-27T02:27:01.968Z,24.61
2019-06-27T02:27:39.240Z,24.76
2019-06-27T02:28:16.220Z,24.69
2019-06-27T02:28:52.252Z,24.64
2019-06-27T02:29:28.847Z,24.62
2019-06-27T02:30:06.078Z,24.65
2019-06-27T02:30:43.489Z,24.62
2019-06-27T02:31:20.260Z,24.65
2019-06-27T02:31:56.946Z,24.63
2019-06-27T02:32:33.300Z,24.67
2019-06-27T02:33:10.040Z,24.67
2019-06-27T02:33:46.649Z,24.65
2019-06-27T02:34:22.955Z,24.63
2019-06-27T02:34:59.618Z,24.60
2019-06-27T02:35:36.431Z,24.60
2019-06-27T02:36:12.466Z,24.59
2019-06-27T02:36:49.101Z,24.61
2019-06-27T02:37:25.718Z,24.59
2019-06-27T02:38:02.246Z,24.56
2019-06-27T02:38:38.975Z,24.59
2019-06-27T02:39:15.947Z,24.55
2019-06-27T02:39:51.949Z,24.59
2019-06-27T02:40:28.564Z,24.62
2019-06-27T02:41:05.454Z,24.61
2019-06-27T02:41:41.860Z,24.50
2019-06-27T02:42:18.459Z,24.50
2019-06-27T02:42:55.212Z,24.50
2019-06-27T02:43:31.274Z,24.58
2019-06-27T02:44:07.984Z,24.50
2019-06-27T02:44:44.597Z,24.51
2019-06-27T02:45:20.935Z,24.51
2019-06-27T02:45:57.544Z,24.48
2019-06-27T02:46:35.518Z,24.45
2019-06-27T02:47:11.572Z,24.43
2019-06-27T02:47:48.213Z,24.42
2019-06-27T02:48:24.844Z,24.41
2019-06-27T02:49:00.862Z,24.42
2019-06-27T02:49:37.645Z,24.42
2019-06-27T02:50:14.312Z,24.42
2019-06-27T02:50:50.354Z,24.43
2019-06-27T02:51:26.966Z,24.37
2019-06-27T02:52:03.797Z,24.31
2019-06-27T02:52:40.027Z,24.34
2019-06-27T02:53:17.050Z,24.33
2019-06-27T02:53:53.662Z,24.25
2019-06-27T02:54:30.112Z,24.26
2019-06-27T02:55:06.967Z,24.25
2019-06-27T02:55:43.583Z,24.25
2019-06-27T02:56:19.605Z,24.26
2019-06-27T02:56:56.222Z,24.29
2019-06-27T02:57:32.840Z,24.31
2019-06-27T02:58:28.873Z,24.33
2019-06-27T02:58:47.464Z,24.27
2019-06-27T02:59:24.121Z,24.33
2019-06-27T03:00:00.452Z,24.41
2019-06-27T03:00:37.414Z,24.37
2019-06-27T03:01:14.067Z,24.30
2019-06-27T03:01:50.074Z,24.32
2019-06-27T03:02:26.775Z,24.29
2019-06-27T03:03:03.578Z,24.26
2019-06-27T03:03:39.750Z,24.25
2019-06-27T03:04:16.353Z,24.22
2019-06-27T03:04:53.048Z,24.22
2019-06-27T03:05:29.079Z,24.20
2019-06-27T03:06:05.940Z,24.21
2019-06-27T03:06:43.218Z,24.25
2019-06-27T03:07:19.359Z,24.20
2019-06-27T03:07:55.995Z,24.25
2019-06-27T03:08:32.762Z,24.22
2019-06-27T03:09:08.913Z,24.14
2019-06-27T03:09:45.647Z,24.21
2019-06-27T03:10:23.785Z,24.23
2019-06-27T03:10:59.826Z,24.19
2019-06-27T03:11:36.806Z,24.10
2019-06-27T03:12:13.464Z,24.11
2019-06-27T03:12:49.830Z,24.21
2019-06-27T03:13:26.474Z,24.16
2019-06-27T03:14:03.358Z,24.10
2019-06-27T03:14:39.988Z,24.08
2019-06-27T03:15:16.877Z,24.10
2019-06-27T03:15:53.495Z,24.12
2019-06-27T03:16:29.616Z,24.10
2019-06-27T03:17:06.476Z,24.11
2019-06-27T03:17:43.192Z,24.08
2019-06-27T03:18:19.305Z,24.11
2019-06-27T03:18:55.918Z,24.09
2019-06-27T03:19:33.525Z,24.04
2019-06-27T03:20:10.844Z,23.97
2019-06-27T03:20:48.211Z,23.98
2019-06-27T03:21:25.161Z,23.95
2019-06-27T03:22:05.371Z,23.97
2019-06-27T03:22:40.156Z,23.94
2019-06-27T03:23:16.814Z,23.88
2019-06-27T03:23:52.870Z,23.84
2019-06-27T03:24:29.581Z,23.85
2019-06-27T03:25:06.871Z,23.87
2019-06-27T03:25:42.931Z,23.83
2019-06-27T03:26:19.517Z,23.84
2019-06-27T03:26:56.124Z,23.81
2019-06-27T03:27:32.324Z,23.76
2019-06-27T03:28:08.941Z,23.84
2019-06-27T03:28:52.746Z,23.85
2019-06-27T03:29:23.935Z,23.85
2019-06-27T03:30:00.552Z,23.81
2019-06-27T03:30:37.261Z,23.82
2019-06-27T03:31:13.344Z,23.84
2019-06-27T03:31:49.912Z,23.90
2019-06-27T03:32:26.508Z,23.91
2019-06-27T03:33:02.638Z,23.96
2019-06-27T03:33:39.365Z,23.94
2019-06-27T03:34:15.965Z,23.86
2019-06-27T03:34:51.982Z,23.85
2019-06-27T03:35:28.593Z,23.87
2019-06-27T03:36:05.304Z,23.84
2019-06-27T03:36:41.903Z,23.78
2019-06-27T03:37:18.516Z,23.70
2019-06-27T03:37:55.116Z,23.79
2019-06-27T03:38:31.168Z,23.87
2019-06-27T03:39:08.114Z,23.82
2019-06-27T03:39:44.791Z,23.87
2019-06-27T03:40:21.442Z,23.76
2019-06-27T03:40:58.070Z,23.84
2019-06-27T03:41:35.240Z,23.78
2019-06-27T03:42:11.468Z,23.80
2019-06-27T03:42:48.075Z,23.76
2019-06-27T03:43:25.117Z,23.76
2019-06-27T03:44:01.186Z,23.77
2019-06-27T03:44:37.948Z,23.78
2019-06-27T03:45:16.124Z,23.80
2019-06-27T03:45:52.706Z,23.80
2019-06-27T03:46:29.333Z,23.84
2019-06-27T03:47:05.998Z,23.83
2019-06-27T03:47:42.070Z,23.72
2019-06-27T03:48:18.718Z,23.70
2019-06-27T03:48:55.397Z,23.77
2019-06-27T03:49:31.449Z,23.69
2019-06-27T03:50:08.537Z,23.70
2019-06-27T03:50:44.921Z,23.81
2019-06-27T03:51:20.939Z,23.81
2019-06-27T03:51:57.546Z,23.74
2019-06-27T03:52:34.307Z,23.70
2019-06-27T03:53:10.340Z,23.64
2019-06-27T03:53:47.295Z,23.69
2019-06-27T03:54:23.917Z,23.67
2019-06-27T03:54:59.956Z,23.65
2019-06-27T03:55:36.573Z,23.62
2019-06-27T03:56:13.248Z,23.51
2019-06-27T03:56:49.270Z,23.49
2019-06-27T03:57:25.875Z,23.54
2019-06-27T03:58:02.483Z,23.60
2019-06-27T03:58:38.921Z,23.63
2019-06-27T03:59:15.580Z,23.62
2019-06-27T03:59:52.172Z,23.64
2019-06-27T04:00:32.795Z,23.58
2019-06-27T04:01:09.502Z,23.54
2019-06-27T04:01:46.175Z,23.47
2019-06-27T04:02:22.616Z,23.54
2019-06-27T04:02:59.218Z,23.57
2019-06-27T04:03:36.102Z,23.63
2019-06-27T04:04:15.451Z,23.63
2019-06-27T04:04:52.062Z,23.57
2019-06-27T04:05:28.676Z,23.57
2019-06-27T04:06:04.750Z,23.57
2019-06-27T04:06:41.391Z,23.54
2019-06-27T04:07:18.006Z,23.49
2019-06-27T04:07:54.032Z,23.43
2019-06-27T04:08:30.710Z,23.46
2019-06-27T04:09:07.782Z,23.39
2019-06-27T04:09:44.165Z,23.43
2019-06-27T04:10:20.794Z,23.44
2019-06-27T04:10:57.913Z,23.47
2019-06-27T04:11:34.267Z,23.50
2019-06-27T04:12:11.059Z,23.57
2019-06-27T04:12:47.761Z,23.71
2019-06-27T04:13:24.351Z,23.64
2019-06-27T04:14:01.234Z,23.56
2019-06-27T04:14:37.899Z,23.55
2019-06-27T04:15:14.260Z,23.60
2019-06-27T04:15:51.188Z,23.53
2019-06-27T04:16:27.811Z,23.52
2019-06-27T04:17:03.962Z,23.54
2019-06-27T04:17:40.902Z,23.45
2019-06-27T04:18:17.882Z,23.43
2019-06-27T04:18:53.894Z,23.43
2019-06-27T04:19:30.896Z,23.44
2019-06-27T04:20:07.783Z,23.43
2019-06-27T04:20:44.079Z,23.46
2019-06-27T04:21:20.670Z,23.45
2019-06-27T04:21:57.264Z,23.44
2019-06-27T04:22:33.330Z,23.42
2019-06-27T04:23:09.988Z,23.41
2019-06-27T04:23:46.618Z,23.39
2019-06-27T04:24:22.695Z,23.45
2019-06-27T04:24:59.658Z,23.50
2019-06-27T04:25:36.309Z,23.55
2019-06-27T04:26:12.828Z,23.47
2019-06-27T04:26:49.523Z,23.38
2019-06-27T04:27:26.180Z,23.30
2019-06-27T04:28:02.511Z,23.30
2019-06-27T04:28:39.285Z,23.32
2019-06-27T04:29:32.826Z,23.41
2019-06-27T04:29:53.675Z,23.50
2019-06-27T04:30:30.465Z,23.46
2019-06-27T04:31:07.153Z,23.53
2019-06-27T04:31:43.220Z,23.51
2019-06-27T04:32:20.075Z,23.47
2019-06-27T04:32:56.758Z,23.38
2019-06-27T04:33:32.768Z,23.46
2019-06-27T04:34:09.849Z,23.42
2019-06-27T04:34:46.866Z,23.47
2019-06-27T04:35:22.866Z,23.46
2019-06-27T04:35:59.504Z,23.46
2019-06-27T04:36:36.479Z,23.48
2019-06-27T04:37:13.102Z,23.36
2019-06-27T04:37:49.730Z,23.34
2019-06-27T04:38:26.328Z,23.32
2019-06-27T04:39:02.474Z,23.32
2019-06-27T04:39:39.679Z,23.33
2019-06-27T04:40:16.787Z,23.38
2019-06-27T04:40:52.819Z,23.40
2019-06-27T04:41:29.498Z,23.37
2019-06-27T04:42:06.278Z,23.37
2019-06-27T04:42:42.765Z,23.41
2019-06-27T04:43:19.355Z,23.38
2019-06-27T04:43:56.397Z,23.38
2019-06-27T04:44:32.871Z,23.40
2019-06-27T04:45:09.754Z,23.43
2019-06-27T04:45:46.452Z,23.40
2019-06-27T04:46:22.521Z,23.36
2019-06-27T04:46:59.137Z,23.38
2019-06-27T04:47:36.001Z,23.30
2019-06-27T04:48:12.066Z,23.23
2019-06-27T04:48:48.828Z,23.25
2019-06-27T04:49:25.427Z,23.34
2019-06-27T04:50:01.530Z,23.39
2019-06-27T04:50:38.645Z,23.43
2019-06-27T04:51:15.605Z,23.43
2019-06-27T04:51:51.713Z,23.45
2019-06-27T04:52:28.495Z,23.51
2019-06-27T04:53:05.591Z,23.53
2019-06-27T04:53:41.998Z,23.47
2019-06-27T04:54:18.895Z,23.52
2019-06-27T04:54:56.081Z,23.53
2019-06-27T04:55:32.242Z,23.51
2019-06-27T04:56:08.879Z,23.54
2019-06-27T04:56:45.747Z,23.48
2019-06-27T04:57:22.117Z,23.49
2019-06-27T04:57:58.803Z,23.61
2019-06-27T04:58:35.648Z,23.66
2019-06-27T04:59:11.799Z,23.72
2019-06-27T04:59:54.028Z,23.71
2019-06-27T05:00:31.004Z,23.63
2019-06-27T05:01:07.173Z,23.47
2019-06-27T05:01:43.809Z,23.51
2019-06-27T05:02:20.497Z,23.43
2019-06-27T05:02:57.011Z,23.44
2019-06-27T05:03:33.822Z,23.47
2019-06-27T05:04:10.477Z,23.46
2019-06-27T05:04:46.538Z,23.42
2019-06-27T05:05:24.273Z,23.50
2019-06-27T05:06:00.916Z,23.60
2019-06-27T05:06:37.167Z,23.69
2019-06-27T05:07:16.685Z,23.63
2019-06-27T05:07:53.395Z,23.66
2019-06-27T05:08:29.460Z,23.60
2019-06-27T05:09:06.322Z,23.77
2019-06-27T05:09:43.075Z,23.72
2019-06-27T05:10:19.141Z,23.69
2019-06-27T05:10:55.752Z,23.75
2019-06-27T05:11:32.359Z,23.83
2019-06-27T05:12:08.506Z,23.78
2019-06-27T05:12:45.215Z,23.69
2019-06-27T05:13:21.873Z,23.69
2019-06-27T05:13:57.944Z,23.76
2019-06-27T05:14:34.666Z,23.82
2019-06-27T05:15:11.395Z,23.80
2019-06-27T05:15:47.399Z,23.73
2019-06-27T05:16:24.001Z,23.70
2019-06-27T05:17:01.431Z,23.74
2019-06-27T05:17:37.684Z,23.70
2019-06-27T05:18:14.348Z,23.68
2019-06-27T05:18:51.342Z,23.63
2019-06-27T05:19:28.135Z,23.64
2019-06-27T05:20:04.949Z,23.63
2019-06-27T05:20:41.764Z,23.66
2019-06-27T05:21:17.798Z,23.74
2019-06-27T05:21:55.172Z,23.71
2019-06-27T05:22:31.791Z,23.72
2019-06-27T05:23:07.915Z,23.67
2019-06-27T05:23:45.389Z,23.74
2019-06-27T05:24:22.055Z,23.67
2019-06-27T05:24:58.070Z,23.68
2019-06-27T05:25:34.788Z,23.74
2019-06-27T05:26:11.492Z,23.76
2019-06-27T05:26:47.507Z,23.70
2019-06-27T05:27:24.325Z,23.74
2019-06-27T05:28:00.928Z,23.74
2019-06-27T05:28:37.099Z,23.73
2019-06-27T05:29:14.064Z,23.69
2019-06-27T05:29:51.073Z,23.70
2019-06-27T05:30:27.118Z,23.75
2019-06-27T05:31:03.898Z,23.74
2019-06-27T05:31:40.694Z,23.69
2019-06-27T05:32:16.781Z,23.73
2019-06-27T05:32:53.475Z,23.79
2019-06-27T05:33:30.071Z,23.78
2019-06-27T05:34:06.206Z,23.82
2019-06-27T05:34:42.888Z,23.75
2019-06-27T05:35:20.310Z,23.77
2019-06-27T05:35:56.384Z,23.72
2019-06-27T05:36:33.125Z,23.72
2019-06-27T05:37:09.809Z,23.71
2019-06-27T05:37:46.039Z,23.68
2019-06-27T05:38:23.004Z,23.71
2019-06-27T05:38:59.952Z,23.72
2019-06-27T05:39:36.167Z,23.75
2019-06-27T05:40:13.303Z,23.54
2019-06-27T05:40:49.948Z,23.57
2019-06-27T05:41:25.954Z,23.59
2019-06-27T05:42:02.571Z,23.65
2019-06-27T05:42:39.263Z,23.59
2019-06-27T05:43:15.410Z,23.55
2019-06-27T05:43:51.989Z,23.48
2019-06-27T05:44:28.931Z,23.49
2019-06-27T05:45:05.461Z,23.49
2019-06-27T05:45:42.142Z,23.58
2019-06-27T05:46:19.131Z,23.57
2019-06-27T05:46:55.177Z,23.56
2019-06-27T05:47:32.444Z,23.58
2019-06-27T05:48:09.151Z,23.55
2019-06-27T05:48:45.449Z,23.51
2019-06-27T05:49:22.027Z,23.53
2019-06-27T05:49:58.624Z,23.62
2019-06-27T05:50:35.265Z,23.76
2019-06-27T05:51:12.016Z,23.85
2019-06-27T05:51:48.955Z,23.71
2019-06-27T05:52:25.009Z,23.69
2019-06-27T05:53:01.976Z,23.83
2019-06-27T05:53:38.967Z,23.74
2019-06-27T05:54:14.984Z,23.81
2019-06-27T05:54:51.982Z,23.82
2019-06-27T05:55:28.598Z,23.77
2019-06-27T05:56:05.015Z,23.66
2019-06-27T05:56:41.847Z,23.68
2019-06-27T05:57:18.966Z,23.73
2019-06-27T05:57:55.389Z,23.75
2019-06-27T05:58:32.313Z,23.92
2019-06-27T05:59:09.308Z,23.87
2019-06-27T05:59:45.338Z,23.80
2019-06-27T06:00:29.006Z,23.76
2019-06-27T06:01:00.787Z,23.80
2019-06-27T06:01:36.894Z,23.79
2019-06-27T06:02:13.655Z,23.92
2019-06-27T06:02:50.277Z,23.76
2019-06-27T06:03:26.347Z,23.81
2019-06-27T06:04:03.029Z,23.87
2019-06-27T06:04:39.938Z,23.87
2019-06-27T06:05:16.095Z,23.85
2019-06-27T06:05:52.849Z,23.90
2019-06-27T06:06:29.440Z,23.94
2019-06-27T06:07:06.061Z,23.90
2019-06-27T06:07:43.022Z,23.87
2019-06-27T06:08:19.993Z,23.87
2019-06-27T06:08:56.365Z,23.87
2019-06-27T06:09:33.223Z,23.98
2019-06-27T06:10:10.476Z,23.93
2019-06-27T06:10:47.152Z,23.96
2019-06-27T06:11:24.053Z,23.98
2019-06-27T06:12:00.739Z,24.06
2019-06-27T06:12:37.452Z,23.97
2019-06-27T06:13:14.411Z,24.05
2019-06-27T06:13:51.688Z,23.94
2019-06-27T06:14:27.719Z,23.82
2019-06-27T06:15:04.526Z,23.83
2019-06-27T06:15:41.155Z,23.80
2019-06-27T06:16:17.616Z,23.86
2019-06-27T06:16:54.246Z,23.84
2019-06-27T06:17:31.205Z,23.90
2019-06-27T06:18:07.588Z,23.82
2019-06-27T06:18:44.406Z,23.82
2019-06-27T06:19:21.008Z,23.90
2019-06-27T06:19:57.042Z,23.99
2019-06-27T06:20:35.400Z,24.09
2019-06-27T06:21:12.117Z,24.12
2019-06-27T06:21:48.923Z,24.25
2019-06-27T06:22:25.529Z,24.25
2019-06-27T06:23:02.623Z,24.25
2019-06-27T06:23:39.113Z,24.33
2019-06-27T06:24:16.306Z,24.30
2019-06-27T06:24:52.909Z,24.29
2019-06-27T06:25:29.611Z,24.44
2019-06-27T06:26:06.489Z,24.49
2019-06-27T06:26:43.457Z,24.62
2019-06-27T06:27:19.626Z,24.51
2019-06-27T06:27:56.219Z,24.56
2019-06-27T06:28:32.864Z,24.65
2019-06-27T06:29:09.131Z,24.71
2019-06-27T06:29:46.149Z,24.68
2019-06-27T06:30:23.311Z,24.81
2019-06-27T06:30:59.325Z,24.82
2019-06-27T06:31:36.317Z,24.92
2019-06-27T06:32:13.413Z,24.91
2019-06-27T06:32:49.801Z,24.99
2019-06-27T06:33:26.414Z,25.05
2019-06-27T06:34:04.132Z,25.15
2019-06-27T06:34:40.463Z,25.17
2019-06-27T06:35:17.542Z,25.12
2019-06-27T06:35:54.175Z,25.13
2019-06-27T06:36:30.213Z,25.14
2019-06-27T06:37:08.140Z,25.11
2019-06-27T06:37:44.967Z,25.14
2019-06-27T06:38:20.983Z,25.13
2019-06-27T06:38:57.640Z,25.13
2019-06-27T06:39:34.331Z,25.28
2019-06-27T06:40:10.607Z,25.16
2019-06-27T06:40:47.364Z,25.30
2019-06-27T06:41:24.055Z,25.32
2019-06-27T06:42:00.066Z,25.16
2019-06-27T06:42:37.097Z,25.09
2019-06-27T06:43:13.758Z,25.13
2019-06-27T06:43:50.046Z,25.19
2019-06-27T06:44:26.967Z,25.16
2019-06-27T06:45:03.830Z,25.11
2019-06-27T06:45:40.298Z,25.33
2019-06-27T06:46:17.171Z,25.27
2019-06-27T06:46:53.802Z,25.09
2019-06-27T06:47:29.847Z,25.18
2019-06-27T06:48:06.863Z,25.14
2019-06-27T06:48:43.545Z,25.13
2019-06-27T06:49:19.874Z,25.20
2019-06-27T06:49:56.442Z,25.19
2019-06-27T06:50:33.399Z,25.19
2019-06-27T06:51:09.949Z,25.28
2019-06-27T06:51:46.582Z,25.20
2019-06-27T06:52:23.187Z,25.21
2019-06-27T06:52:59.198Z,25.30
2019-06-27T06:53:35.848Z,25.26
2019-06-27T06:54:12.584Z,25.14
2019-06-27T06:54:48.589Z,25.20
2019-06-27T06:55:25.200Z,25.16
2019-06-27T06:56:01.824Z,25.15
2019-06-27T06:56:38.140Z,25.22
2019-06-27T06:57:15.507Z,25.22
2019-06-27T06:57:52.145Z,25.24
2019-06-27T06:58:28.598Z,25.07
2019-06-27T06:59:05.990Z,25.24
2019-06-27T06:59:42.764Z,25.22
2019-06-27T07:00:20.712Z,25.22
2019-06-27T07:01:02.067Z,25.26
2019-06-27T07:01:35.741Z,25.33
2019-06-27T07:02:12.166Z,25.39
2019-06-27T07:02:48.778Z,25.48
2019-06-27T07:03:25.757Z,25.37
2019-06-27T07:04:02.548Z,25.42
2019-06-27T07:04:39.240Z,25.16
2019-06-27T07:05:15.849Z,25.26
2019-06-27T07:05:51.889Z,25.30
2019-06-27T07:06:28.565Z,25.29
2019-06-27T07:07:05.876Z,25.30
2019-06-27T07:07:41.909Z,25.43
2019-06-27T07:08:18.533Z,25.45
2019-06-27T07:08:55.421Z,25.39
2019-06-27T07:09:31.515Z,25.43
2019-06-27T07:10:08.377Z,25.55
2019-06-27T07:10:44.984Z,25.57
2019-06-27T07:11:20.999Z,25.46
2019-06-27T07:11:57.667Z,25.35
2019-06-27T07:12:34.327Z,25.38
2019-06-27T07:13:10.785Z,25.29
2019-06-27T07:13:47.375Z,25.49
2019-06-27T07:14:26.990Z,25.42
2019-06-27T07:15:02.123Z,25.45
2019-06-27T07:15:39.347Z,25.43
2019-06-27T07:16:16.704Z,25.48
2019-06-27T07:16:53.190Z,25.48
2019-06-27T07:17:30.702Z,25.44
2019-06-27T07:18:07.352Z,25.34
2019-06-27T07:18:43.363Z,25.35
2019-06-27T07:19:20.005Z,25.38
2019-06-27T07:19:57.650Z,25.29
2019-06-27T07:20:34.467Z,25.19
2019-06-27T07:21:11.208Z,25.06
2019-06-27T07:21:47.804Z,25.14
2019-06-27T07:22:24.192Z,24.96
2019-06-27T07:23:01.411Z,24.93
2019-06-27T07:23:38.175Z,24.86
2019-06-27T07:24:14.210Z,24.89
2019-06-27T07:24:51.232Z,25.03
2019-06-27T07:25:28.178Z,25.07
2019-06-27T07:26:05.230Z,25.19
2019-06-27T07:26:41.851Z,25.25
2019-06-27T07:27:18.453Z,25.22
2019-06-27T07:27:55.347Z,25.25
2019-06-27T07:28:31.984Z,25.20
2019-06-27T07:29:08.810Z,25.18
2019-06-27T07:29:45.176Z,25.24
2019-06-27T07:30:22.597Z,25.17
2019-06-27T07:30:59.347Z,25.21
2019-06-27T07:31:35.402Z,25.02
2019-06-27T07:32:12.528Z,25.11
2019-06-27T07:32:49.247Z,25.18
2019-06-27T07:33:25.628Z,25.17
2019-06-27T07:34:02.216Z,25.16
2019-06-27T07:34:39.298Z,25.28
2019-06-27T07:35:15.322Z,25.37
2019-06-27T07:35:53.007Z,25.41
2019-06-27T07:36:29.981Z,25.40
2019-06-27T07:37:06.123Z,25.39
2019-06-27T07:37:43.070Z,25.43
2019-06-27T07:38:20.376Z,25.43
2019-06-27T07:38:56.375Z,25.39
2019-06-27T07:39:33.468Z,25.30
2019-06-27T07:40:11.129Z,25.26
2019-06-27T07:40:47.553Z,25.37
2019-06-27T07:41:24.234Z,25.48
2019-06-27T07:42:01.280Z,25.53
2019-06-27T07:42:37.734Z,25.59
2019-06-27T07:43:14.751Z,25.73
2019-06-27T07:43:51.318Z,25.67
2019-06-27T07:44:27.997Z,25.59
2019-06-27T07:45:04.721Z,25.52
2019-06-27T07:45:41.385Z,25.63
2019-06-27T07:46:25.228Z,25.59
2019-06-27T07:46:56.381Z,25.45
2019-06-27T07:47:33.080Z,25.54
2019-06-27T07:48:09.408Z,25.60
2019-06-27T07:48:45.999Z,25.65
2019-06-27T07:49:22.600Z,25.67
2019-06-27T07:49:58.629Z,25.80
2019-06-27T07:50:35.349Z,25.94
2019-06-27T07:51:11.950Z,26.06
2019-06-27T07:51:47.989Z,26.11
2019-06-27T07:52:24.622Z,26.04